createdAt,value
2023-02-15T00:03:22.794Z,100.00
2023-02-15T00:07:49.259Z,99.71
2023-02-15T00:11:50.664Z,99.87
2023-02-15T00:15:52.112Z,100.00
2023-02-15T00:19:53.658Z,99.74
2023-02-15T00:23:55.002Z,99.42
2023-02-15T00:27:56.352Z,98.64
2023-02-15T00:31:57.698Z,98.19
2023-02-15T00:36:00.703Z,97.58
2023-02-15T00:40:02.528Z,97.69
2023-02-15T00:44:05.135Z,97.79
2023-02-15T00:48:32.602Z,97.94
2023-02-15T00:52:34.132Z,98.12
2023-02-15T00:56:35.773Z,98.15
2023-02-15T01:00:51.307Z,97.87
2023-02-15T01:04:52.976Z,97.38
2023-02-15T01:09:11.127Z,96.66
2023-02-15T01:13:12.426Z,96.79
2023-02-15T01:17:13.825Z,97.98
2023-02-15T01:21:21.279Z,98.77
2023-02-15T01:25:24.264Z,99.45
2023-02-15T01:29:25.690Z,99.37
2023-02-15T01:33:27.421Z,99.96
2023-02-15T01:37:31.699Z,99.67
2023-02-15T01:41:33.237Z,100.00
2023-02-15T01:45:39.357Z,99.62
2023-02-15T01:49:42.644Z,98.64
2023-02-15T01:57:53.728Z,98.50
2023-02-15T02:01:58.716Z,98.92
2023-02-15T02:06:00.504Z,98.68
2023-02-15T02:11:18.051Z,98.45
2023-02-15T02:15:24.164Z,98.94
2023-02-15T02:19:50.296Z,98.66
2023-02-15T02:24:09.365Z,99.40
2023-02-15T02:28:52.931Z,99.99
2023-02-15T02:33:35.377Z,100.00
2023-02-15T02:37:48.915Z,100.00
2023-02-15T02:42:18.106Z,100.00
2023-02-15T02:46:26.754Z,100.00
2023-02-15T02:50:30.066Z,100.00
2023-02-15T02:54:34.989Z,100.00
2023-02-15T03:18:34.130Z,100.00
2023-02-15T03:37:32.381Z,98.37
2023-02-15T03:41:57.200Z,97.13
2023-02-15T03:46:08.402Z,97.27
2023-02-15T03:55:23.992Z,98.03
2023-02-15T04:04:26.843Z,98.38
2023-02-15T04:08:46.826Z,99.04
2023-02-15T04:13:21.731Z,99.61
2023-02-15T04:17:23.167Z,100.00
2023-02-15T04:21:49.672Z,100.00
2023-02-15T04:25:51.133Z,100.00
2023-02-15T04:29:52.652Z,100.00
2023-02-15T04:43:33.814Z,98.80
2023-02-15T04:47:43.845Z,100.00
2023-02-15T04:51:45.742Z,100.00
2023-02-15T04:55:52.353Z,100.00
2023-02-15T04:59:54.142Z,100.00
2023-02-15T05:03:56.169Z,100.00
2023-02-15T05:07:58.184Z,99.99
2023-02-15T05:12:00.413Z,99.19
2023-02-15T05:16:03.444Z,98.20
2023-02-15T05:30:02.853Z,97.74
2023-02-15T05:34:49.519Z,98.36
2023-02-15T05:39:01.840Z,99.34
2023-02-15T05:43:04.256Z,99.76
2023-02-15T05:47:40.993Z,100.00
2023-02-15T05:51:43.752Z,100.00
2023-02-15T05:55:50.595Z,100.00
2023-02-15T05:59:51.909Z,100.00
2023-02-15T06:09:27.856Z,100.00
2023-02-15T06:13:31.086Z,99.72
2023-02-15T06:17:32.497Z,98.82
2023-02-15T06:21:44.341Z,99.53
2023-02-15T06:25:46.611Z,99.64
2023-02-15T06:29:48.025Z,99.02
2023-02-15T06:33:50.711Z,98.49
2023-02-15T06:37:52.119Z,97.96
2023-02-15T06:42:44.271Z,97.39
2023-02-15T06:46:45.697Z,97.08
2023-02-15T06:50:55.358Z,97.11
2023-02-15T06:54:56.818Z,96.73
2023-02-15T07:00:03.118Z,97.10
2023-02-15T07:04:04.733Z,98.72
2023-02-15T07:09:11.871Z,99.01
2023-02-15T07:13:13.241Z,100.00
2023-02-15T07:17:40.226Z,100.00
2023-02-15T07:21:41.745Z,100.00
2023-02-15T07:25:43.186Z,100.00
2023-02-15T07:29:44.721Z,99.91
2023-02-15T07:33:59.237Z,100.00
2023-02-15T07:47:41.420Z,100.00
2023-02-15T08:21:05.451Z,99.77
2023-02-15T08:29:55.597Z,97.10
2023-02-15T08:34:00.929Z,96.01
2023-02-15T08:38:03.688Z,95.43
2023-02-15T08:42:11.647Z,95.22
2023-02-15T08:46:16.613Z,93.81
2023-02-15T08:55:59.633Z,90.75
2023-02-15T09:22:07.418Z,85.47
2023-02-15T09:26:13.111Z,84.58
2023-02-15T09:30:15.177Z,83.99
2023-02-15T09:34:18.790Z,83.60
2023-02-15T09:38:20.549Z,82.50
2023-02-15T09:47:57.581Z,81.22
2023-02-15T09:52:08.041Z,81.35
2023-02-15T09:57:16.294Z,80.65
2023-02-15T10:01:55.718Z,80.93
2023-02-15T10:06:32.770Z,80.21
2023-02-15T10:25:13.130Z,80.55
2023-02-15T10:30:21.236Z,80.95
2023-02-15T11:14:48.343Z,78.40
2023-02-15T11:19:09.547Z,78.13
2023-02-15T11:23:16.729Z,76.87
2023-02-15T11:27:26.759Z,77.50
2023-02-15T11:31:48.499Z,75.98
2023-02-15T11:45:35.823Z,75.62
2023-02-15T11:49:41.962Z,75.37
2023-02-15T11:53:46.079Z,75.36
2023-02-15T11:58:41.473Z,75.10
2023-02-15T12:02:55.903Z,75.19
2023-02-15T12:07:22.862Z,74.50
2023-02-15T12:11:32.420Z,74.39
2023-02-15T12:15:36.853Z,74.09
2023-02-15T12:19:40.849Z,74.66
2023-02-15T12:24:39.954Z,74.09
2023-02-15T12:28:44.766Z,73.76
2023-02-15T12:33:00.096Z,73.71
2023-02-15T12:37:09.717Z,73.92
2023-02-15T12:41:26.210Z,73.99
2023-02-15T12:45:30.441Z,74.37
2023-02-15T12:49:38.985Z,75.29
2023-02-15T12:53:43.523Z,73.81
2023-02-15T12:58:22.518Z,72.67
2023-02-15T13:02:28.759Z,72.04
2023-02-15T13:06:32.003Z,72.54
2023-02-15T13:16:38.435Z,72.57
2023-02-15T13:20:42.164Z,72.58
2023-02-15T13:25:26.220Z,73.08
2023-02-15T13:29:36.176Z,72.91
2023-02-15T13:33:38.705Z,72.24
2023-02-15T13:38:02.126Z,72.91
2023-02-15T14:09:36.254Z,70.40
2023-02-15T14:28:47.122Z,70.36
2023-02-15T14:32:53.354Z,69.70
2023-02-15T14:36:56.502Z,70.18
2023-02-15T14:46:36.370Z,70.35
2023-02-15T14:51:08.340Z,71.57
2023-02-15T14:55:10.654Z,71.53
2023-02-15T14:59:39.223Z,72.35
2023-02-15T15:03:56.742Z,72.89
2023-02-15T15:08:00.938Z,73.01
2023-02-15T15:12:37.229Z,72.84
2023-02-15T15:16:38.543Z,73.61
2023-02-15T15:20:54.864Z,73.68
2023-02-15T15:25:23.758Z,74.34
2023-02-15T15:29:41.133Z,74.75
2023-02-15T15:34:10.184Z,75.18
2023-02-15T15:38:32.349Z,75.59
2023-02-15T15:42:42.992Z,75.86
2023-02-15T15:47:25.939Z,75.96
2023-02-15T15:51:31.832Z,76.34
2023-02-15T15:55:35.012Z,76.40
2023-02-15T15:59:36.489Z,76.45
2023-02-15T16:03:37.924Z,76.61
2023-02-15T16:07:41.660Z,77.39
2023-02-15T16:12:14.362Z,78.19
2023-02-15T16:16:22.798Z,78.46
2023-02-15T16:20:57.722Z,78.24
2023-02-15T16:25:05.485Z,78.30
2023-02-15T16:29:18.128Z,78.66
2023-02-15T16:33:20.462Z,78.62
2023-02-15T16:37:26.386Z,78.84
2023-02-15T16:47:41.540Z,80.12
2023-02-15T16:51:47.471Z,80.59
2023-02-15T16:55:53.427Z,80.70
2023-02-15T17:00:01.405Z,80.87
2023-02-15T17:04:30.521Z,81.46
2023-02-15T17:08:33.167Z,83.43
2023-02-15T17:12:45.405Z,85.93
2023-02-15T17:22:07.361Z,88.85
2023-02-15T17:26:25.098Z,89.28
2023-02-15T17:30:38.176Z,89.52
2023-02-15T17:35:25.051Z,90.17
2023-02-15T17:39:26.461Z,89.15
2023-02-15T17:43:27.932Z,88.44
2023-02-15T17:47:30.817Z,88.67
2023-02-15T17:51:35.333Z,89.44
2023-02-15T17:55:44.459Z,89.94
2023-02-15T18:00:04.600Z,90.70
2023-02-15T18:04:31.788Z,91.22
2023-02-15T18:08:51.892Z,91.85
2023-02-15T18:12:53.282Z,92.49
2023-02-15T18:16:55.110Z,92.39
2023-02-15T18:20:56.577Z,91.87
2023-02-15T18:24:58.772Z,91.12
2023-02-15T18:29:02.736Z,90.45
2023-02-15T18:33:04.177Z,90.00
2023-02-15T18:37:10.590Z,89.92
2023-02-15T18:41:18.196Z,90.05
2023-02-15T18:45:53.335Z,89.73
2023-02-15T18:49:54.754Z,89.33
2023-02-15T18:53:56.891Z,89.34
2023-02-15T18:57:58.936Z,89.34
2023-02-15T19:02:50.543Z,90.03
2023-02-15T19:06:53.651Z,89.96
2023-02-15T19:10:55.505Z,90.13
2023-02-15T19:14:56.939Z,89.76
2023-02-15T19:19:07.467Z,89.48
2023-02-15T19:23:33.114Z,88.82
2023-02-15T19:27:35.286Z,88.56
2023-02-15T19:31:36.786Z,87.91
2023-02-15T19:35:44.011Z,87.59
2023-02-15T19:39:45.473Z,87.21
2023-02-15T19:43:52.630Z,87.02
2023-02-15T19:47:54.571Z,86.88
2023-02-15T19:51:59.231Z,86.65
2023-02-15T19:56:00.877Z,86.37
2023-02-15T20:00:22.129Z,85.73
2023-02-15T20:04:25.305Z,85.73
2023-02-15T20:08:28.881Z,86.31
2023-02-15T20:12:30.399Z,86.45
2023-02-15T20:17:00.157Z,86.32
2023-02-15T20:21:03.084Z,86.10
2023-02-15T20:25:05.347Z,86.08
2023-02-15T20:29:12.311Z,85.83
2023-02-15T20:33:15.257Z,86.25
2023-02-15T20:38:22.471Z,86.20
2023-02-15T20:42:23.871Z,85.52
2023-02-15T20:46:25.595Z,85.43
2023-02-15T20:50:53.652Z,85.59
2023-02-15T20:54:55.151Z,85.72
2023-02-15T20:58:56.572Z,85.91
2023-02-15T21:03:00.335Z,86.56
2023-02-15T21:07:30.357Z,87.14
2023-02-15T21:11:31.779Z,87.16
2023-02-15T21:15:35.976Z,86.84
2023-02-15T21:19:40.690Z,86.32
2023-02-15T21:23:51.087Z,86.21
2023-02-15T21:27:53.030Z,86.11
2023-02-15T21:32:26.756Z,86.18
2023-02-15T21:36:28.268Z,85.92
2023-02-15T21:40:31.650Z,85.38
2023-02-15T21:44:53.906Z,84.84
2023-02-15T21:48:55.387Z,84.63
2023-02-15T21:53:34.382Z,84.45
2023-02-15T21:57:35.778Z,84.30
2023-02-15T22:01:47.059Z,84.23
2023-02-15T22:05:48.496Z,83.94
2023-02-15T22:09:49.965Z,83.82
2023-02-15T22:13:51.417Z,83.70
2023-02-15T22:17:57.059Z,83.13
2023-02-15T22:21:58.390Z,83.07
2023-02-15T22:26:27.302Z,83.35
2023-02-15T22:30:33.178Z,83.87
2023-02-15T22:34:34.652Z,83.72
2023-02-15T22:39:02.020Z,83.41
2023-02-15T22:43:05.022Z,83.09
2023-02-15T22:47:20.234Z,82.91
2023-02-15T22:51:23.921Z,83.58
2023-02-15T22:55:32.999Z,86.33
2023-02-15T22:59:34.458Z,88.11
2023-02-15T23:03:36.975Z,87.73
2023-02-15T23:07:38.379Z,87.61
2023-02-15T23:11:46.437Z,86.72
2023-02-15T23:16:12.061Z,86.91
2023-02-15T23:20:14.577Z,87.49
2023-02-15T23:24:42.869Z,88.95
2023-02-15T23:28:45.121Z,88.76
2023-02-15T23:33:58.991Z,88.77
2023-02-15T23:38:00.408Z,89.02
2023-02-15T23:42:25.091Z,89.25
2023-02-15T23:46:44.902Z,88.90
2023-02-15T23:50:46.351Z,88.36
2023-02-15T23:55:15.122Z,87.71
2023-02-15T23:59:20.653Z,87.24
